sensor_id;sensor_type;location;lat;lon;timestamp;P1;durP1;ratioP1;P2;durP2;ratioP2
55497;SDS011;41357;52.806;18.268;2023-02-19T00:00:52;12.20;;;2.55;;
55497;SDS011;41357;52.806;18.268;2023-02-19T00:03:18;5.32;;;2.65;;
55497;SDS011;41357;52.806;18.268;2023-02-19T00:05:44;6.22;;;1.60;;
55497;SDS011;41357;52.806;18.268;2023-02-19T00:08:10;8.40;;;2.03;;
55497;SDS011;41357;52.806;18.268;2023-02-19T00:10:36;7.88;;;1.63;;
55497;SDS011;41357;52.806;18.268;2023-02-19T00:13:02;8.15;;;1.88;;
55497;SDS011;41357;52.806;18.268;2023-02-19T00:15:30;10.52;;;2.60;;
55497;SDS011;41357;52.806;18.268;2023-02-19T00:17:56;11.48;;;3.70;;
55497;SDS011;41357;52.806;18.268;2023-02-19T00:20:23;9.60;;;2.92;;
55497;SDS011;41357;52.806;18.268;2023-02-19T00:22:49;12.65;;;2.90;;
55497;SDS011;41357;52.806;18.268;2023-02-19T00:25:15;11.55;;;2.78;;
55497;SDS011;41357;52.806;18.268;2023-02-19T00:27:42;23.52;;;6.53;;
55497;SDS011;41357;52.806;18.268;2023-02-19T00:30:08;15.80;;;3.65;;
55497;SDS011;41357;52.806;18.268;2023-02-19T00:32:34;5.82;;;2.20;;
55497;SDS011;41357;52.806;18.268;2023-02-19T00:35:00;6.32;;;1.67;;
55497;SDS011;41357;52.806;18.268;2023-02-19T00:37:26;11.48;;;2.47;;
55497;SDS011;41357;52.806;18.268;2023-02-19T00:39:52;18.73;;;4.93;;
55497;SDS011;41357;52.806;18.268;2023-02-19T00:42:19;12.25;;;3.35;;
55497;SDS011;41357;52.806;18.268;2023-02-19T00:44:45;6.97;;;2.33;;
55497;SDS011;41357;52.806;18.268;2023-02-19T00:47:11;10.35;;;2.78;;
55497;SDS011;41357;52.806;18.268;2023-02-19T00:49:37;5.72;;;2.05;;
55497;SDS011;41357;52.806;18.268;2023-02-19T00:52:03;7.35;;;2.05;;
55497;SDS011;41357;52.806;18.268;2023-02-19T00:54:29;14.35;;;5.40;;
55497;SDS011;41357;52.806;18.268;2023-02-19T00:56:55;10.45;;;3.30;;
55497;SDS011;41357;52.806;18.268;2023-02-19T00:59:21;13.38;;;5.07;;
55497;SDS011;41357;52.806;18.268;2023-02-19T01:01:47;8.70;;;3.47;;
55497;SDS011;41357;52.806;18.268;2023-02-19T01:04:15;10.50;;;3.28;;
55497;SDS011;41357;52.806;18.268;2023-02-19T01:06:41;9.10;;;2.00;;
55497;SDS011;41357;52.806;18.268;2023-02-19T01:09:07;10.30;;;2.60;;
55497;SDS011;41357;52.806;18.268;2023-02-19T01:11:33;9.98;;;3.72;;
55497;SDS011;41357;52.806;18.268;2023-02-19T01:14:00;10.90;;;2.72;;
55497;SDS011;41357;52.806;18.268;2023-02-19T01:16:26;12.73;;;4.30;;
55497;SDS011;41357;52.806;18.268;2023-02-19T01:18:52;14.80;;;3.38;;
55497;SDS011;41357;52.806;18.268;2023-02-19T01:21:20;6.78;;;2.67;;
55497;SDS011;41357;52.806;18.268;2023-02-19T01:23:47;11.65;;;2.92;;
55497;SDS011;41357;52.806;18.268;2023-02-19T01:26:14;8.18;;;3.10;;
55497;SDS011;41357;52.806;18.268;2023-02-19T01:28:41;11.00;;;3.25;;
55497;SDS011;41357;52.806;18.268;2023-02-19T01:31:09;16.35;;;4.38;;
55497;SDS011;41357;52.806;18.268;2023-02-19T01:33:36;12.15;;;4.50;;
55497;SDS011;41357;52.806;18.268;2023-02-19T01:36:03;17.67;;;3.95;;
55497;SDS011;41357;52.806;18.268;2023-02-19T01:38:29;8.45;;;2.00;;
55497;SDS011;41357;52.806;18.268;2023-02-19T01:40:56;10.98;;;3.42;;
55497;SDS011;41357;52.806;18.268;2023-02-19T01:43:22;9.32;;;5.45;;
55497;SDS011;41357;52.806;18.268;2023-02-19T01:45:48;11.65;;;4.60;;
55497;SDS011;41357;52.806;18.268;2023-02-19T01:48:19;11.60;;;4.10;;
55497;SDS011;41357;52.806;18.268;2023-02-19T01:50:47;6.32;;;3.28;;
55497;SDS011;41357;52.806;18.268;2023-02-19T01:53:14;9.93;;;3.20;;
55497;SDS011;41357;52.806;18.268;2023-02-19T01:55:41;8.70;;;3.30;;
55497;SDS011;41357;52.806;18.268;2023-02-19T01:58:10;8.38;;;4.05;;
55497;SDS011;41357;52.806;18.268;2023-02-19T02:00:37;9.82;;;3.83;;
55497;SDS011;41357;52.806;18.268;2023-02-19T02:03:03;7.70;;;3.40;;
55497;SDS011;41357;52.806;18.268;2023-02-19T02:08:14;8.15;;;3.88;;
55497;SDS011;41357;52.806;18.268;2023-02-19T02:11:00;7.32;;;3.10;;
55497;SDS011;41357;52.806;18.268;2023-02-19T02:13:26;7.53;;;3.33;;
55497;SDS011;41357;52.806;18.268;2023-02-19T02:21:42;8.93;;;4.20;;
55497;SDS011;41357;52.806;18.268;2023-02-19T02:24:16;14.77;;;3.38;;
55497;SDS011;41357;52.806;18.268;2023-02-19T02:26:55;12.35;;;3.85;;
55497;SDS011;41357;52.806;18.268;2023-02-19T02:32:09;11.25;;;4.03;;
55497;SDS011;41357;52.806;18.268;2023-02-19T02:34:39;8.75;;;3.95;;
55497;SDS011;41357;52.806;18.268;2023-02-19T02:37:06;8.07;;;4.03;;
55497;SDS011;41357;52.806;18.268;2023-02-19T02:39:33;15.77;;;5.63;;
55497;SDS011;41357;52.806;18.268;2023-02-19T02:41:59;10.52;;;4.55;;
55497;SDS011;41357;52.806;18.268;2023-02-19T02:44:44;10.70;;;3.42;;
55497;SDS011;41357;52.806;18.268;2023-02-19T02:47:30;12.77;;;4.28;;
55497;SDS011;41357;52.806;18.268;2023-02-19T02:50:12;10.68;;;4.05;;
55497;SDS011;41357;52.806;18.268;2023-02-19T02:52:40;10.52;;;4.35;;
55497;SDS011;41357;52.806;18.268;2023-02-19T02:55:27;8.70;;;3.22;;
55497;SDS011;41357;52.806;18.268;2023-02-19T02:57:54;9.45;;;3.70;;
55497;SDS011;41357;52.806;18.268;2023-02-19T03:00:21;7.15;;;3.53;;
55497;SDS011;41357;52.806;18.268;2023-02-19T03:02:48;12.65;;;3.35;;
55497;SDS011;41357;52.806;18.268;2023-02-19T03:05:16;5.65;;;3.03;;
55497;SDS011;41357;52.806;18.268;2023-02-19T03:08:09;9.43;;;3.65;;
55497;SDS011;41357;52.806;18.268;2023-02-19T03:10:40;9.40;;;4.05;;
55497;SDS011;41357;52.806;18.268;2023-02-19T03:13:09;7.28;;;3.67;;
55497;SDS011;41357;52.806;18.268;2023-02-19T03:15:57;10.18;;;3.40;;
55497;SDS011;41357;52.806;18.268;2023-02-19T03:18:44;8.90;;;3.47;;
55497;SDS011;41357;52.806;18.268;2023-02-19T03:21:30;18.52;;;3.78;;
55497;SDS011;41357;52.806;18.268;2023-02-19T03:23:57;13.63;;;4.32;;
55497;SDS011;41357;52.806;18.268;2023-02-19T03:26:43;10.13;;;2.22;;
55497;SDS011;41357;52.806;18.268;2023-02-19T03:29:20;12.40;;;3.55;;
55497;SDS011;41357;52.806;18.268;2023-02-19T03:32:00;9.35;;;2.72;;
55497;SDS011;41357;52.806;18.268;2023-02-19T03:34:31;6.75;;;3.40;;
55497;SDS011;41357;52.806;18.268;2023-02-19T03:37:05;20.05;;;4.72;;
55497;SDS011;41357;52.806;18.268;2023-02-19T03:39:31;8.57;;;3.05;;
55497;SDS011;41357;52.806;18.268;2023-02-19T03:47:53;11.20;;;3.55;;
55497;SDS011;41357;52.806;18.268;2023-02-19T03:50:30;16.60;;;3.00;;
55497;SDS011;41357;52.806;18.268;2023-02-19T03:53:03;9.57;;;3.22;;
55497;SDS011;41357;52.806;18.268;2023-02-19T03:55:36;9.70;;;3.90;;
55497;SDS011;41357;52.806;18.268;2023-02-19T03:58:21;13.60;;;3.33;;
55497;SDS011;41357;52.806;18.268;2023-02-19T04:00:54;9.63;;;3.70;;
55497;SDS011;41357;52.806;18.268;2023-02-19T04:06:09;15.98;;;4.43;;
55497;SDS011;41357;52.806;18.268;2023-02-19T04:08:36;11.88;;;3.40;;
55497;SDS011;41357;52.806;18.268;2023-02-19T04:11:03;7.32;;;3.15;;
55497;SDS011;41357;52.806;18.268;2023-02-19T04:13:32;12.30;;;3.28;;
55497;SDS011;41357;52.806;18.268;2023-02-19T04:16:00;13.00;;;4.22;;
55497;SDS011;41357;52.806;18.268;2023-02-19T04:18:30;13.20;;;3.45;;
55497;SDS011;41357;52.806;18.268;2023-02-19T04:20:57;10.32;;;3.45;;
55497;SDS011;41357;52.806;18.268;2023-02-19T04:23:25;10.90;;;3.55;;
55497;SDS011;41357;52.806;18.268;2023-02-19T04:25:53;7.93;;;3.10;;
55497;SDS011;41357;52.806;18.268;2023-02-19T04:28:20;12.40;;;3.78;;
55497;SDS011;41357;52.806;18.268;2023-02-19T04:30:47;14.77;;;3.97;;
55497;SDS011;41357;52.806;18.268;2023-02-19T04:33:13;13.43;;;3.78;;
55497;SDS011;41357;52.806;18.268;2023-02-19T04:35:39;11.77;;;3.17;;
55497;SDS011;41357;52.806;18.268;2023-02-19T04:38:05;9.45;;;3.92;;
55497;SDS011;41357;52.806;18.268;2023-02-19T04:40:31;12.77;;;3.35;;
55497;SDS011;41357;52.806;18.268;2023-02-19T04:42:57;13.82;;;4.18;;
55497;SDS011;41357;52.806;18.268;2023-02-19T04:45:23;12.02;;;3.38;;
55497;SDS011;41357;52.806;18.268;2023-02-19T04:47:49;13.95;;;4.90;;
55497;SDS011;41357;52.806;18.268;2023-02-19T04:50:15;8.10;;;4.05;;
55497;SDS011;41357;52.806;18.268;2023-02-19T04:52:41;6.03;;;2.28;;
55497;SDS011;41357;52.806;18.268;2023-02-19T04:55:08;9.75;;;3.47;;
55497;SDS011;41357;52.806;18.268;2023-02-19T04:57:34;7.78;;;3.10;;
55497;SDS011;41357;52.806;18.268;2023-02-19T05:00:00;8.77;;;3.55;;
55497;SDS011;41357;52.806;18.268;2023-02-19T05:02:26;15.00;;;4.40;;
55497;SDS011;41357;52.806;18.268;2023-02-19T05:04:52;12.05;;;3.95;;
55497;SDS011;41357;52.806;18.268;2023-02-19T05:07:18;14.85;;;3.92;;
55497;SDS011;41357;52.806;18.268;2023-02-19T05:09:44;9.00;;;3.00;;
55497;SDS011;41357;52.806;18.268;2023-02-19T05:12:10;11.82;;;3.10;;
55497;SDS011;41357;52.806;18.268;2023-02-19T05:14:36;20.15;;;4.35;;
55497;SDS011;41357;52.806;18.268;2023-02-19T05:17:02;12.20;;;4.13;;
55497;SDS011;41357;52.806;18.268;2023-02-19T05:19:29;10.48;;;3.65;;
55497;SDS011;41357;52.806;18.268;2023-02-19T05:21:55;13.38;;;3.85;;
55497;SDS011;41357;52.806;18.268;2023-02-19T05:24:21;10.63;;;4.32;;
55497;SDS011;41357;52.806;18.268;2023-02-19T05:26:48;6.88;;;3.10;;
55497;SDS011;41357;52.806;18.268;2023-02-19T05:29:14;8.15;;;4.55;;
55497;SDS011;41357;52.806;18.268;2023-02-19T05:31:40;16.15;;;4.10;;
55497;SDS011;41357;52.806;18.268;2023-02-19T05:34:06;11.30;;;4.55;;
55497;SDS011;41357;52.806;18.268;2023-02-19T05:36:32;11.90;;;3.85;;
55497;SDS011;41357;52.806;18.268;2023-02-19T05:39:01;14.38;;;3.13;;
55497;SDS011;41357;52.806;18.268;2023-02-19T05:41:28;14.10;;;3.55;;
55497;SDS011;41357;52.806;18.268;2023-02-19T05:43:55;6.40;;;3.35;;
55497;SDS011;41357;52.806;18.268;2023-02-19T05:46:23;13.25;;;4.60;;
55497;SDS011;41357;52.806;18.268;2023-02-19T05:48:49;17.80;;;5.00;;
55497;SDS011;41357;52.806;18.268;2023-02-19T05:51:17;18.05;;;5.93;;
55497;SDS011;41357;52.806;18.268;2023-02-19T05:53:43;9.75;;;3.92;;
55497;SDS011;41357;52.806;18.268;2023-02-19T05:56:52;11.95;;;4.07;;
55497;SDS011;41357;52.806;18.268;2023-02-19T05:59:00;18.60;;;4.60;;
55497;SDS011;41357;52.806;18.268;2023-02-19T06:01:28;14.30;;;4.30;;
55497;SDS011;41357;52.806;18.268;2023-02-19T06:03:54;15.02;;;4.40;;
55497;SDS011;41357;52.806;18.268;2023-02-19T06:06:20;17.65;;;3.85;;
55497;SDS011;41357;52.806;18.268;2023-02-19T06:08:47;11.25;;;4.10;;
55497;SDS011;41357;52.806;18.268;2023-02-19T06:11:18;15.15;;;4.30;;
55497;SDS011;41357;52.806;18.268;2023-02-19T06:13:44;10.95;;;3.92;;
55497;SDS011;41357;52.806;18.268;2023-02-19T06:16:10;10.00;;;5.05;;
55497;SDS011;41357;52.806;18.268;2023-02-19T06:18:37;13.20;;;5.18;;
55497;SDS011;41357;52.806;18.268;2023-02-19T06:21:06;9.15;;;3.80;;
55497;SDS011;41357;52.806;18.268;2023-02-19T06:23:32;11.13;;;3.38;;
55497;SDS011;41357;52.806;18.268;2023-02-19T06:28:44;11.50;;;5.57;;
55497;SDS011;41357;52.806;18.268;2023-02-19T06:31:10;9.98;;;4.65;;
55497;SDS011;41357;52.806;18.268;2023-02-19T06:33:37;11.32;;;4.55;;
55497;SDS011;41357;52.806;18.268;2023-02-19T06:36:05;24.85;;;5.75;;
55497;SDS011;41357;52.806;18.268;2023-02-19T06:38:31;19.90;;;4.43;;
55497;SDS011;41357;52.806;18.268;2023-02-19T06:41:00;15.80;;;4.68;;
55497;SDS011;41357;52.806;18.268;2023-02-19T06:43:27;13.73;;;3.87;;
55497;SDS011;41357;52.806;18.268;2023-02-19T06:45:53;9.50;;;4.43;;
55497;SDS011;41357;52.806;18.268;2023-02-19T06:48:19;19.67;;;5.07;;
55497;SDS011;41357;52.806;18.268;2023-02-19T06:50:46;20.00;;;5.95;;
55497;SDS011;41357;52.806;18.268;2023-02-19T06:53:12;20.23;;;5.53;;
55497;SDS011;41357;52.806;18.268;2023-02-19T06:55:38;12.38;;;4.80;;
55497;SDS011;41357;52.806;18.268;2023-02-19T06:58:07;12.05;;;4.78;;
55497;SDS011;41357;52.806;18.268;2023-02-19T07:00:33;12.30;;;4.72;;
55497;SDS011;41357;52.806;18.268;2023-02-19T07:02:59;10.85;;;4.00;;
55497;SDS011;41357;52.806;18.268;2023-02-19T07:05:26;18.88;;;5.38;;
55497;SDS011;41357;52.806;18.268;2023-02-19T07:07:52;8.27;;;3.95;;
55497;SDS011;41357;52.806;18.268;2023-02-19T07:10:18;17.50;;;4.60;;
55497;SDS011;41357;52.806;18.268;2023-02-19T07:12:44;13.38;;;4.25;;
55497;SDS011;41357;52.806;18.268;2023-02-19T07:15:10;12.70;;;4.00;;
55497;SDS011;41357;52.806;18.268;2023-02-19T07:17:36;11.00;;;4.50;;
55497;SDS011;41357;52.806;18.268;2023-02-19T07:20:02;16.95;;;5.35;;
55497;SDS011;41357;52.806;18.268;2023-02-19T07:22:29;9.00;;;3.40;;
55497;SDS011;41357;52.806;18.268;2023-02-19T07:24:55;14.48;;;4.55;;
55497;SDS011;41357;52.806;18.268;2023-02-19T07:27:21;17.30;;;4.90;;
55497;SDS011;41357;52.806;18.268;2023-02-19T07:29:47;12.27;;;3.72;;
55497;SDS011;41357;52.806;18.268;2023-02-19T07:32:13;18.60;;;6.05;;
55497;SDS011;41357;52.806;18.268;2023-02-19T07:34:39;16.08;;;4.95;;
55497;SDS011;41357;52.806;18.268;2023-02-19T07:37:05;11.98;;;4.78;;
55497;SDS011;41357;52.806;18.268;2023-02-19T07:39:31;10.70;;;4.03;;
55497;SDS011;41357;52.806;18.268;2023-02-19T07:41:57;10.10;;;4.53;;
55497;SDS011;41357;52.806;18.268;2023-02-19T07:44:23;13.35;;;5.55;;
55497;SDS011;41357;52.806;18.268;2023-02-19T07:46:49;9.38;;;4.22;;
55497;SDS011;41357;52.806;18.268;2023-02-19T07:49:15;12.65;;;4.63;;
55497;SDS011;41357;52.806;18.268;2023-02-19T07:51:41;11.77;;;4.65;;
55497;SDS011;41357;52.806;18.268;2023-02-19T07:54:08;10.18;;;5.18;;
55497;SDS011;41357;52.806;18.268;2023-02-19T07:56:35;15.32;;;5.60;;
55497;SDS011;41357;52.806;18.268;2023-02-19T07:59:01;12.20;;;5.30;;
55497;SDS011;41357;52.806;18.268;2023-02-19T08:01:27;13.15;;;4.78;;
55497;SDS011;41357;52.806;18.268;2023-02-19T08:04:12;10.35;;;4.88;;
55497;SDS011;41357;52.806;18.268;2023-02-19T08:06:39;14.63;;;4.60;;
55497;SDS011;41357;52.806;18.268;2023-02-19T08:09:06;14.80;;;4.95;;
55497;SDS011;41357;52.806;18.268;2023-02-19T08:11:32;14.00;;;5.00;;
55497;SDS011;41357;52.806;18.268;2023-02-19T08:14:17;18.40;;;5.43;;
55497;SDS011;41357;52.806;18.268;2023-02-19T08:16:47;8.98;;;3.47;;
55497;SDS011;41357;52.806;18.268;2023-02-19T08:19:13;17.55;;;5.55;;
55497;SDS011;41357;52.806;18.268;2023-02-19T08:21:39;12.40;;;4.47;;
55497;SDS011;41357;52.806;18.268;2023-02-19T08:24:05;9.18;;;3.78;;
55497;SDS011;41357;52.806;18.268;2023-02-19T08:26:32;12.15;;;3.72;;
55497;SDS011;41357;52.806;18.268;2023-02-19T08:28:58;6.80;;;3.45;;
55497;SDS011;41357;52.806;18.268;2023-02-19T08:31:24;12.98;;;4.07;;
55497;SDS011;41357;52.806;18.268;2023-02-19T08:33:51;13.18;;;3.65;;
55497;SDS011;41357;52.806;18.268;2023-02-19T08:36:17;12.65;;;4.05;;
55497;SDS011;41357;52.806;18.268;2023-02-19T08:38:43;7.68;;;2.50;;
55497;SDS011;41357;52.806;18.268;2023-02-19T08:41:10;10.60;;;3.25;;
55497;SDS011;41357;52.806;18.268;2023-02-19T08:43:37;8.38;;;3.38;;
55497;SDS011;41357;52.806;18.268;2023-02-19T08:46:03;8.75;;;3.20;;
55497;SDS011;41357;52.806;18.268;2023-02-19T08:48:30;9.98;;;3.40;;
55497;SDS011;41357;52.806;18.268;2023-02-19T08:50:57;12.63;;;3.72;;
55497;SDS011;41357;52.806;18.268;2023-02-19T08:53:24;8.85;;;3.58;;
55497;SDS011;41357;52.806;18.268;2023-02-19T08:55:50;8.75;;;3.15;;
55497;SDS011;41357;52.806;18.268;2023-02-19T08:58:17;9.05;;;3.22;;
55497;SDS011;41357;52.806;18.268;2023-02-19T09:00:43;18.50;;;3.83;;
55497;SDS011;41357;52.806;18.268;2023-02-19T09:03:09;9.07;;;2.72;;
55497;SDS011;41357;52.806;18.268;2023-02-19T09:05:36;8.70;;;3.03;;
55497;SDS011;41357;52.806;18.268;2023-02-19T09:08:02;6.65;;;2.20;;
55497;SDS011;41357;52.806;18.268;2023-02-19T09:10:28;9.43;;;2.42;;
55497;SDS011;41357;52.806;18.268;2023-02-19T09:12:55;6.47;;;2.40;;
55497;SDS011;41357;52.806;18.268;2023-02-19T09:15:21;4.35;;;2.75;;
55497;SDS011;41357;52.806;18.268;2023-02-19T09:17:51;8.43;;;2.15;;
55497;SDS011;41357;52.806;18.268;2023-02-19T09:20:17;11.45;;;2.63;;
55497;SDS011;41357;52.806;18.268;2023-02-19T09:22:43;8.98;;;3.33;;
55497;SDS011;41357;52.806;18.268;2023-02-19T09:25:09;9.10;;;2.42;;
55497;SDS011;41357;52.806;18.268;2023-02-19T09:27:35;13.35;;;2.72;;
55497;SDS011;41357;52.806;18.268;2023-02-19T09:30:02;5.63;;;1.30;;
55497;SDS011;41357;52.806;18.268;2023-02-19T09:32:31;5.95;;;2.72;;
55497;SDS011;41357;52.806;18.268;2023-02-19T09:34:57;4.60;;;1.50;;
55497;SDS011;41357;52.806;18.268;2023-02-19T09:37:24;8.70;;;2.08;;
55497;SDS011;41357;52.806;18.268;2023-02-19T09:39:51;14.68;;;2.10;;
55497;SDS011;41357;52.806;18.268;2023-02-19T09:42:18;7.57;;;2.17;;
55497;SDS011;41357;52.806;18.268;2023-02-19T09:44:48;7.82;;;1.80;;
55497;SDS011;41357;52.806;18.268;2023-02-19T09:47:18;3.92;;;1.52;;
55497;SDS011;41357;52.806;18.268;2023-02-19T09:49:46;5.10;;;1.67;;
55497;SDS011;41357;52.806;18.268;2023-02-19T09:54:48;9.98;;;2.33;;
55497;SDS011;41357;52.806;18.268;2023-02-19T09:57:15;4.75;;;2.08;;
55497;SDS011;41357;52.806;18.268;2023-02-19T09:59:46;7.28;;;1.80;;
55497;SDS011;41357;52.806;18.268;2023-02-19T10:04:40;11.02;;;1.63;;
55497;SDS011;41357;52.806;18.268;2023-02-19T10:07:13;7.65;;;2.25;;
55497;SDS011;41357;52.806;18.268;2023-02-19T10:09:40;7.55;;;2.00;;
55497;SDS011;41357;52.806;18.268;2023-02-19T10:12:23;11.02;;;2.38;;
55497;SDS011;41357;52.806;18.268;2023-02-19T10:14:50;10.05;;;2.45;;
55497;SDS011;41357;52.806;18.268;2023-02-19T10:17:35;9.75;;;1.90;;
55497;SDS011;41357;52.806;18.268;2023-02-19T10:20:01;6.00;;;1.77;;
55497;SDS011;41357;52.806;18.268;2023-02-19T10:22:28;4.93;;;1.80;;
55497;SDS011;41357;52.806;18.268;2023-02-19T10:24:55;5.82;;;2.00;;
55497;SDS011;41357;52.806;18.268;2023-02-19T10:27:24;10.05;;;2.67;;
55497;SDS011;41357;52.806;18.268;2023-02-19T10:29:53;7.55;;;1.75;;
55497;SDS011;41357;52.806;18.268;2023-02-19T10:32:20;5.18;;;1.70;;
55497;SDS011;41357;52.806;18.268;2023-02-19T10:37:32;6.97;;;2.53;;
55497;SDS011;41357;52.806;18.268;2023-02-19T10:39:59;9.60;;;2.00;;
55497;SDS011;41357;52.806;18.268;2023-02-19T10:42:26;7.53;;;1.80;;
55497;SDS011;41357;52.806;18.268;2023-02-19T10:44:53;5.32;;;2.28;;
55497;SDS011;41357;52.806;18.268;2023-02-19T10:47:22;6.20;;;1.30;;
55497;SDS011;41357;52.806;18.268;2023-02-19T10:49:50;6.30;;;1.75;;
55497;SDS011;41357;52.806;18.268;2023-02-19T10:52:18;5.93;;;1.40;;
55497;SDS011;41357;52.806;18.268;2023-02-19T10:54:45;8.55;;;2.55;;
55497;SDS011;41357;52.806;18.268;2023-02-19T11:00:23;3.15;;;0.75;;
55497;SDS011;41357;52.806;18.268;2023-02-19T11:02:29;10.48;;;1.30;;
55497;SDS011;41357;52.806;18.268;2023-02-19T11:05:04;1.65;;;0.82;;
55497;SDS011;41357;52.806;18.268;2023-02-19T11:07:30;7.28;;;2.13;;
55497;SDS011;41357;52.806;18.268;2023-02-19T11:09:56;9.40;;;1.85;;
55497;SDS011;41357;52.806;18.268;2023-02-19T11:12:27;8.73;;;1.63;;
55497;SDS011;41357;52.806;18.268;2023-02-19T11:14:54;7.90;;;1.38;;
55497;SDS011;41357;52.806;18.268;2023-02-19T11:17:27;10.82;;;2.15;;
55497;SDS011;41357;52.806;18.268;2023-02-19T11:20:04;4.30;;;1.25;;
55497;SDS011;41357;52.806;18.268;2023-02-19T11:22:32;7.80;;;1.23;;
55497;SDS011;41357;52.806;18.268;2023-02-19T11:25:04;7.28;;;1.27;;
55497;SDS011;41357;52.806;18.268;2023-02-19T11:27:31;12.57;;;1.35;;
55497;SDS011;41357;52.806;18.268;2023-02-19T11:32:42;7.43;;;1.55;;
55497;SDS011;41357;52.806;18.268;2023-02-19T11:35:20;5.65;;;1.30;;
55497;SDS011;41357;52.806;18.268;2023-02-19T11:40:18;5.90;;;1.20;;
55497;SDS011;41357;52.806;18.268;2023-02-19T11:42:47;1.90;;;0.90;;
55497;SDS011;41357;52.806;18.268;2023-02-19T11:45:21;3.17;;;0.75;;
55497;SDS011;41357;52.806;18.268;2023-02-19T11:47:56;4.13;;;0.70;;
55497;SDS011;41357;52.806;18.268;2023-02-19T11:50:41;6.78;;;1.13;;
55497;SDS011;41357;52.806;18.268;2023-02-19T12:01:24;3.05;;;0.93;;
55497;SDS011;41357;52.806;18.268;2023-02-19T12:11:48;5.88;;;0.90;;
55497;SDS011;41357;52.806;18.268;2023-02-19T12:16:57;5.13;;;1.63;;
55497;SDS011;41357;52.806;18.268;2023-02-19T12:42:40;3.83;;;0.90;;
55497;SDS011;41357;52.806;18.268;2023-02-19T12:45:18;0.65;;;0.32;;
55497;SDS011;41357;52.806;18.268;2023-02-19T12:47:53;2.55;;;1.02;;
55497;SDS011;41357;52.806;18.268;2023-02-19T12:50:21;7.53;;;1.90;;
55497;SDS011;41357;52.806;18.268;2023-02-19T12:52:49;4.20;;;1.10;;
55497;SDS011;41357;52.806;18.268;2023-02-19T12:55:19;9.80;;;1.13;;
55497;SDS011;41357;52.806;18.268;2023-02-19T12:57:46;6.88;;;0.90;;
55497;SDS011;41357;52.806;18.268;2023-02-19T13:03:04;7.03;;;0.90;;
55497;SDS011;41357;52.806;18.268;2023-02-19T13:05:46;7.00;;;1.10;;
55497;SDS011;41357;52.806;18.268;2023-02-19T13:08:18;3.20;;;0.80;;
55497;SDS011;41357;52.806;18.268;2023-02-19T13:10:59;5.18;;;1.20;;
55497;SDS011;41357;52.806;18.268;2023-02-19T13:13:29;6.30;;;1.05;;
55497;SDS011;41357;52.806;18.268;2023-02-19T13:15:59;2.38;;;0.80;;
55497;SDS011;41357;52.806;18.268;2023-02-19T13:18:28;8.48;;;1.08;;
55497;SDS011;41357;52.806;18.268;2023-02-19T13:20:56;2.17;;;0.75;;
55497;SDS011;41357;52.806;18.268;2023-02-19T13:23:24;1.95;;;0.43;;
55497;SDS011;41357;52.806;18.268;2023-02-19T13:36:25;8.27;;;1.60;;
55497;SDS011;41357;52.806;18.268;2023-02-19T13:38:53;5.28;;;1.00;;
55497;SDS011;41357;52.806;18.268;2023-02-19T13:41:27;5.60;;;0.55;;
55497;SDS011;41357;52.806;18.268;2023-02-19T13:43:55;3.90;;;0.73;;
55497;SDS011;41357;52.806;18.268;2023-02-19T13:46:22;1.30;;;0.55;;
55497;SDS011;41357;52.806;18.268;2023-02-19T13:48:49;1.73;;;0.40;;
55497;SDS011;41357;52.806;18.268;2023-02-19T13:54:03;2.47;;;0.65;;
55497;SDS011;41357;52.806;18.268;2023-02-19T13:56:38;11.15;;;1.15;;
55497;SDS011;41357;52.806;18.268;2023-02-19T14:14:45;0.65;;;0.40;;
55497;SDS011;41357;52.806;18.268;2023-02-19T14:17:25;3.20;;;0.63;;
55497;SDS011;41357;52.806;18.268;2023-02-19T14:19:53;3.70;;;1.13;;
55497;SDS011;41357;52.806;18.268;2023-02-19T14:25:06;3.00;;;0.60;;
55497;SDS011;41357;52.806;18.268;2023-02-19T14:27:34;3.90;;;0.95;;
55497;SDS011;41357;52.806;18.268;2023-02-19T14:30:01;4.60;;;0.80;;
55497;SDS011;41357;52.806;18.268;2023-02-19T14:32:29;1.73;;;0.80;;
55497;SDS011;41357;52.806;18.268;2023-02-19T14:34:55;2.80;;;0.93;;
55497;SDS011;41357;52.806;18.268;2023-02-19T14:37:22;4.10;;;0.73;;
55497;SDS011;41357;52.806;18.268;2023-02-19T14:39:50;0.85;;;0.47;;
55497;SDS011;41357;52.806;18.268;2023-02-19T14:42:22;1.55;;;0.47;;
55497;SDS011;41357;52.806;18.268;2023-02-19T14:44:51;1.88;;;0.70;;
55497;SDS011;41357;52.806;18.268;2023-02-19T14:47:21;3.50;;;0.40;;
55497;SDS011;41357;52.806;18.268;2023-02-19T14:50:02;6.03;;;0.77;;
55497;SDS011;41357;52.806;18.268;2023-02-19T14:52:33;2.33;;;0.30;;
55497;SDS011;41357;52.806;18.268;2023-02-19T14:57:46;2.17;;;0.80;;
55497;SDS011;41357;52.806;18.268;2023-02-19T15:02:42;2.78;;;0.52;;
55497;SDS011;41357;52.806;18.268;2023-02-19T15:05:22;3.03;;;0.50;;
55497;SDS011;41357;52.806;18.268;2023-02-19T15:07:49;2.28;;;0.70;;
55497;SDS011;41357;52.806;18.268;2023-02-19T15:10:16;0.70;;;0.40;;
55497;SDS011;41357;52.806;18.268;2023-02-19T15:12:49;2.05;;;0.60;;
55497;SDS011;41357;52.806;18.268;2023-02-19T15:15:17;1.45;;;0.50;;
55497;SDS011;41357;52.806;18.268;2023-02-19T15:17:45;3.65;;;0.95;;
55497;SDS011;41357;52.806;18.268;2023-02-19T15:20:14;1.23;;;0.60;;
55497;SDS011;41357;52.806;18.268;2023-02-19T15:22:41;1.75;;;0.70;;
55497;SDS011;41357;52.806;18.268;2023-02-19T15:25:10;1.23;;;0.50;;
55497;SDS011;41357;52.806;18.268;2023-02-19T15:27:37;3.25;;;0.55;;
55497;SDS011;41357;52.806;18.268;2023-02-19T15:30:13;3.22;;;1.13;;
55497;SDS011;41357;52.806;18.268;2023-02-19T15:32:42;3.67;;;0.68;;
55497;SDS011;41357;52.806;18.268;2023-02-19T15:35:16;4.30;;;0.77;;
55497;SDS011;41357;52.806;18.268;2023-02-19T15:37:43;2.28;;;0.77;;
55497;SDS011;41357;52.806;18.268;2023-02-19T15:40:11;3.17;;;0.88;;
55497;SDS011;41357;52.806;18.268;2023-02-19T15:42:38;3.45;;;0.90;;
55497;SDS011;41357;52.806;18.268;2023-02-19T15:45:06;2.40;;;1.00;;
55497;SDS011;41357;52.806;18.268;2023-02-19T15:52:59;3.58;;;0.88;;
55497;SDS011;41357;52.806;18.268;2023-02-19T15:55:35;6.53;;;1.10;;
55497;SDS011;41357;52.806;18.268;2023-02-19T16:03:27;4.18;;;1.33;;
55497;SDS011;41357;52.806;18.268;2023-02-19T16:06:00;4.10;;;1.20;;
55497;SDS011;41357;52.806;18.268;2023-02-19T16:08:27;4.53;;;2.00;;
55497;SDS011;41357;52.806;18.268;2023-02-19T16:10:55;4.68;;;1.80;;
55497;SDS011;41357;52.806;18.268;2023-02-19T16:13:22;4.70;;;0.93;;
55497;SDS011;41357;52.806;18.268;2023-02-19T16:15:55;2.15;;;0.60;;
55497;SDS011;41357;52.806;18.268;2023-02-19T16:18:22;3.38;;;0.98;;
55497;SDS011;41357;52.806;18.268;2023-02-19T16:20:48;4.55;;;1.20;;
55497;SDS011;41357;52.806;18.268;2023-02-19T16:23:15;5.30;;;0.73;;
55497;SDS011;41357;52.806;18.268;2023-02-19T16:25:44;6.57;;;1.48;;
55497;SDS011;41357;52.806;18.268;2023-02-19T16:28:19;3.97;;;0.98;;
55497;SDS011;41357;52.806;18.268;2023-02-19T16:30:54;3.75;;;0.85;;
55497;SDS011;41357;52.806;18.268;2023-02-19T16:33:30;4.85;;;1.67;;
55497;SDS011;41357;52.806;18.268;2023-02-19T16:41:23;3.10;;;1.20;;
55497;SDS011;41357;52.806;18.268;2023-02-19T16:43:49;5.20;;;1.50;;
55497;SDS011;41357;52.806;18.268;2023-02-19T16:46:15;5.15;;;1.08;;
55497;SDS011;41357;52.806;18.268;2023-02-19T16:48:41;6.75;;;1.42;;
55497;SDS011;41357;52.806;18.268;2023-02-19T16:51:08;14.80;;;2.03;;
55497;SDS011;41357;52.806;18.268;2023-02-19T16:53:39;5.78;;;1.33;;